<?xml version="1.0" encoding="UTF-8" standalone="no" ?>
<gpx xmlns="http://www.topografix.com/GPX/1/1" xmlns:xsi="http://www.w3.org/2001/XMLSchema-instance" xsi:schemaLocation="http://www.topografix.com/GPX/1/1 http://www.topografix.com/GPX/1/1/gpx.xsd" version="1.1" creator="VisuGPX - https://www.visugpx.com">
  <metadata>
    <name>debut trans</name>
    <desc><![CDATA[début trans avec loic, nico, lio et 9 autres pers!]]></desc>
  </metadata>
  <trk>
    <name><![CDATA[(null)]]></name>
    <desc><![CDATA[(null)]]></desc>
    <trkseg>
      <trkpt lat="44.05919" lon="7.22887">
        <ele>1615</ele>
        <time>2010-11-06T07:42:46Z</time>
      </trkpt>
      <trkpt lat="44.05919" lon="7.22887">
        <ele>1615</ele>
        <time>2010-11-06T07:42:46Z</time>
      </trkpt>
      <trkpt lat="44.06044" lon="7.22872">
        <ele>1695</ele>
        <time>2010-11-06T07:42:50Z</time>
      </trkpt>
      <trkpt lat="44.06034" lon="7.22861">
        <ele>1694</ele>
        <time>2010-11-06T07:42:55Z</time>
      </trkpt>
      <trkpt lat="44.06042" lon="7.22853">
        <ele>1699</ele>
        <time>2010-11-06T07:42:58Z</time>
      </trkpt>
      <trkpt lat="44.06034" lon="7.22858">
        <ele>1699</ele>
        <time>2010-11-06T07:43:08Z</time>
      </trkpt>
      <trkpt lat="44.05947" lon="7.22818">
        <ele>1690</ele>
        <time>2010-11-06T07:43:25Z</time>
      </trkpt>
      <trkpt lat="44.05868" lon="7.22757">
        <ele>1687</ele>
        <time>2010-11-06T07:43:54Z</time>
      </trkpt>
      <trkpt lat="44.058" lon="7.2272">
        <ele>1688</ele>
        <time>2010-11-06T07:44:18Z</time>
      </trkpt>
      <trkpt lat="44.05713" lon="7.22676">
        <ele>1680</ele>
        <time>2010-11-06T07:45:00Z</time>
      </trkpt>
      <trkpt lat="44.0562" lon="7.22654">
        <ele>1660</ele>
        <time>2010-11-06T07:46:18Z</time>
      </trkpt>
      <trkpt lat="44.05615" lon="7.22581">
        <ele>1667</ele>
        <time>2010-11-06T07:47:16Z</time>
      </trkpt>
      <trkpt lat="44.05558" lon="7.22483">
        <ele>1678</ele>
        <time>2010-11-06T07:48:37Z</time>
      </trkpt>
      <trkpt lat="44.05514" lon="7.22464">
        <ele>1689</ele>
        <time>2010-11-06T07:49:28Z</time>
      </trkpt>
      <trkpt lat="44.05511" lon="7.22338">
        <ele>1703</ele>
        <time>2010-11-06T07:52:07Z</time>
      </trkpt>
      <trkpt lat="44.05557" lon="7.22229">
        <ele>1717</ele>
        <time>2010-11-06T07:53:34Z</time>
      </trkpt>
      <trkpt lat="44.05626" lon="7.22148">
        <ele>1745</ele>
        <time>2010-11-06T08:01:44Z</time>
      </trkpt>
      <trkpt lat="44.05629" lon="7.22145">
        <ele>1746</ele>
        <time>2010-11-06T08:01:47Z</time>
      </trkpt>
      <trkpt lat="44.05675" lon="7.22036">
        <ele>1754</ele>
        <time>2010-11-06T08:02:54Z</time>
      </trkpt>
      <trkpt lat="44.05725" lon="7.21932">
        <ele>1760</ele>
        <time>2010-11-06T08:03:51Z</time>
      </trkpt>
      <trkpt lat="44.05707" lon="7.21874">
        <ele>1771</ele>
        <time>2010-11-06T08:04:23Z</time>
      </trkpt>
      <trkpt lat="44.05654" lon="7.21771">
        <ele>1781</ele>
        <time>2010-11-06T08:05:26Z</time>
      </trkpt>
      <trkpt lat="44.05648" lon="7.21761">
        <ele>1781</ele>
        <time>2010-11-06T08:05:31Z</time>
      </trkpt>
      <trkpt lat="44.05618" lon="7.21643">
        <ele>1793</ele>
        <time>2010-11-06T08:06:38Z</time>
      </trkpt>
      <trkpt lat="44.05528" lon="7.21614">
        <ele>1797</ele>
        <time>2010-11-06T08:07:27Z</time>
      </trkpt>
      <trkpt lat="44.05436" lon="7.21601">
        <ele>1794</ele>
        <time>2010-11-06T08:07:52Z</time>
      </trkpt>
      <trkpt lat="44.05367" lon="7.21565">
        <ele>1791</ele>
        <time>2010-11-06T08:08:07Z</time>
      </trkpt>
      <trkpt lat="44.05317" lon="7.21459">
        <ele>1782</ele>
        <time>2010-11-06T08:08:28Z</time>
      </trkpt>
      <trkpt lat="44.05305" lon="7.21333">
        <ele>1774</ele>
        <time>2010-11-06T08:09:02Z</time>
      </trkpt>
      <trkpt lat="44.05299" lon="7.21306">
        <ele>1773</ele>
        <time>2010-11-06T08:09:11Z</time>
      </trkpt>
      <trkpt lat="44.05238" lon="7.21211">
        <ele>1771</ele>
        <time>2010-11-06T08:10:58Z</time>
      </trkpt>
      <trkpt lat="44.05187" lon="7.21163">
        <ele>1775</ele>
        <time>2010-11-06T08:11:27Z</time>
      </trkpt>
      <trkpt lat="44.05125" lon="7.21071">
        <ele>1807</ele>
        <time>2010-11-06T08:14:05Z</time>
      </trkpt>
      <trkpt lat="44.05115" lon="7.21023">
        <ele>1811</ele>
        <time>2010-11-06T08:14:40Z</time>
      </trkpt>
      <trkpt lat="44.05125" lon="7.20897">
        <ele>1829</ele>
        <time>2010-11-06T08:15:41Z</time>
      </trkpt>
      <trkpt lat="44.05157" lon="7.20779">
        <ele>1834</ele>
        <time>2010-11-06T08:16:44Z</time>
      </trkpt>
      <trkpt lat="44.05108" lon="7.20674">
        <ele>1843</ele>
        <time>2010-11-06T08:17:52Z</time>
      </trkpt>
      <trkpt lat="44.0503" lon="7.20611">
        <ele>1854</ele>
        <time>2010-11-06T08:19:31Z</time>
      </trkpt>
      <trkpt lat="44.05015" lon="7.20597">
        <ele>1854</ele>
        <time>2010-11-06T08:19:42Z</time>
      </trkpt>
      <trkpt lat="44.04951" lon="7.20508">
        <ele>1866</ele>
        <time>2010-11-06T08:21:08Z</time>
      </trkpt>
      <trkpt lat="44.0495" lon="7.20507">
        <ele>1866</ele>
        <time>2010-11-06T08:21:09Z</time>
      </trkpt>
      <trkpt lat="44.04938" lon="7.20469">
        <ele>1873</ele>
        <time>2010-11-06T08:21:35Z</time>
      </trkpt>
      <trkpt lat="44.0488" lon="7.20373">
        <ele>1887</ele>
        <time>2010-11-06T08:23:31Z</time>
      </trkpt>
      <trkpt lat="44.04863" lon="7.20334">
        <ele>1892</ele>
        <time>2010-11-06T08:24:17Z</time>
      </trkpt>
      <trkpt lat="44.04818" lon="7.20225">
        <ele>1894</ele>
        <time>2010-11-06T08:25:34Z</time>
      </trkpt>
      <trkpt lat="44.04784" lon="7.20196">
        <ele>1907</ele>
        <time>2010-11-06T08:26:20Z</time>
      </trkpt>
      <trkpt lat="44.04698" lon="7.20157">
        <ele>1958</ele>
        <time>2010-11-06T08:34:00Z</time>
      </trkpt>
      <trkpt lat="44.047" lon="7.20165">
        <ele>1957</ele>
        <time>2010-11-06T08:47:20Z</time>
      </trkpt>
      <trkpt lat="44.04611" lon="7.20188">
        <ele>1957</ele>
        <time>2010-11-06T08:50:39Z</time>
      </trkpt>
      <trkpt lat="44.04606" lon="7.20193">
        <ele>1957</ele>
        <time>2010-11-06T08:50:49Z</time>
      </trkpt>
      <trkpt lat="44.04524" lon="7.20251">
        <ele>1955</ele>
        <time>2010-11-06T08:51:23Z</time>
      </trkpt>
      <trkpt lat="44.04465" lon="7.20346">
        <ele>1952</ele>
        <time>2010-11-06T08:51:50Z</time>
      </trkpt>
      <trkpt lat="44.04447" lon="7.20365">
        <ele>1950</ele>
        <time>2010-11-06T08:52:00Z</time>
      </trkpt>
      <trkpt lat="44.04366" lon="7.20421">
        <ele>1951</ele>
        <time>2010-11-06T08:52:47Z</time>
      </trkpt>
      <trkpt lat="44.0428" lon="7.2046">
        <ele>1961</ele>
        <time>2010-11-06T08:53:46Z</time>
      </trkpt>
      <trkpt lat="44.0419" lon="7.20444">
        <ele>1969</ele>
        <time>2010-11-06T08:54:46Z</time>
      </trkpt>
      <trkpt lat="44.04144" lon="7.20473">
        <ele>1974</ele>
        <time>2010-11-06T08:55:20Z</time>
      </trkpt>
      <trkpt lat="44.04055" lon="7.2045">
        <ele>1986</ele>
        <time>2010-11-06T08:56:56Z</time>
      </trkpt>
      <trkpt lat="44.03969" lon="7.20412">
        <ele>2000</ele>
        <time>2010-11-06T08:58:46Z</time>
      </trkpt>
      <trkpt lat="44.03917" lon="7.20518">
        <ele>2019</ele>
        <time>2010-11-06T09:07:45Z</time>
      </trkpt>
      <trkpt lat="44.03863" lon="7.20619">
        <ele>2022</ele>
        <time>2010-11-06T09:08:09Z</time>
      </trkpt>
      <trkpt lat="44.03831" lon="7.20737">
        <ele>2029</ele>
        <time>2010-11-06T09:09:30Z</time>
      </trkpt>
      <trkpt lat="44.03779" lon="7.20842">
        <ele>2037</ele>
        <time>2010-11-06T09:10:09Z</time>
      </trkpt>
      <trkpt lat="44.03766" lon="7.20863">
        <ele>2037</ele>
        <time>2010-11-06T09:10:15Z</time>
      </trkpt>
      <trkpt lat="44.03678" lon="7.20897">
        <ele>2049</ele>
        <time>2010-11-06T09:10:54Z</time>
      </trkpt>
      <trkpt lat="44.03602" lon="7.20964">
        <ele>2056</ele>
        <time>2010-11-06T09:11:23Z</time>
      </trkpt>
      <trkpt lat="44.03594" lon="7.20985">
        <ele>2060</ele>
        <time>2010-11-06T09:11:36Z</time>
      </trkpt>
      <trkpt lat="44.03512" lon="7.21039">
        <ele>2063</ele>
        <time>2010-11-06T09:12:38Z</time>
      </trkpt>
      <trkpt lat="44.03493" lon="7.21052">
        <ele>2065</ele>
        <time>2010-11-06T09:12:47Z</time>
      </trkpt>
      <trkpt lat="44.03411" lon="7.21105">
        <ele>2063</ele>
        <time>2010-11-06T09:14:14Z</time>
      </trkpt>
      <trkpt lat="44.03397" lon="7.21114">
        <ele>2063</ele>
        <time>2010-11-06T09:14:31Z</time>
      </trkpt>
      <trkpt lat="44.03303" lon="7.21115">
        <ele>2069</ele>
        <time>2010-11-06T09:15:38Z</time>
      </trkpt>
      <trkpt lat="44.03277" lon="7.21123">
        <ele>2070</ele>
        <time>2010-11-06T09:15:42Z</time>
      </trkpt>
      <trkpt lat="44.03202" lon="7.21198">
        <ele>2060</ele>
        <time>2010-11-06T09:17:14Z</time>
      </trkpt>
      <trkpt lat="44.03205" lon="7.21327">
        <ele>2053</ele>
        <time>2010-11-06T09:17:38Z</time>
      </trkpt>
      <trkpt lat="44.032" lon="7.21455">
        <ele>2040</ele>
        <time>2010-11-06T09:18:06Z</time>
      </trkpt>
      <trkpt lat="44.03156" lon="7.21565">
        <ele>2032</ele>
        <time>2010-11-06T09:18:42Z</time>
      </trkpt>
      <trkpt lat="44.03082" lon="7.21625">
        <ele>2033</ele>
        <time>2010-11-06T09:19:05Z</time>
      </trkpt>
      <trkpt lat="44.03004" lon="7.21689">
        <ele>2031</ele>
        <time>2010-11-06T09:19:31Z</time>
      </trkpt>
      <trkpt lat="44.02985" lon="7.21712">
        <ele>2028</ele>
        <time>2010-11-06T09:19:59Z</time>
      </trkpt>
      <trkpt lat="44.0291" lon="7.21748">
        <ele>2020</ele>
        <time>2010-11-06T09:21:02Z</time>
      </trkpt>
      <trkpt lat="44.02846" lon="7.21839">
        <ele>2009</ele>
        <time>2010-11-06T09:21:56Z</time>
      </trkpt>
      <trkpt lat="44.02784" lon="7.21933">
        <ele>2004</ele>
        <time>2010-11-06T09:22:26Z</time>
      </trkpt>
      <trkpt lat="44.0272" lon="7.22026">
        <ele>2001</ele>
        <time>2010-11-06T09:22:42Z</time>
      </trkpt>
      <trkpt lat="44.02684" lon="7.2214">
        <ele>1994</ele>
        <time>2010-11-06T09:22:57Z</time>
      </trkpt>
      <trkpt lat="44.02669" lon="7.22264">
        <ele>1983</ele>
        <time>2010-11-06T09:23:15Z</time>
      </trkpt>
      <trkpt lat="44.02666" lon="7.2227">
        <ele>1982</ele>
        <time>2010-11-06T09:23:16Z</time>
      </trkpt>
      <trkpt lat="44.02596" lon="7.22353">
        <ele>1993</ele>
        <time>2010-11-06T09:24:20Z</time>
      </trkpt>
      <trkpt lat="44.02515" lon="7.2242">
        <ele>1991</ele>
        <time>2010-11-06T09:25:39Z</time>
      </trkpt>
      <trkpt lat="44.02497" lon="7.22544">
        <ele>2002</ele>
        <time>2010-11-06T09:26:34Z</time>
      </trkpt>
      <trkpt lat="44.02476" lon="7.22645">
        <ele>2007</ele>
        <time>2010-11-06T09:27:30Z</time>
      </trkpt>
      <trkpt lat="44.02425" lon="7.2275">
        <ele>2009</ele>
        <time>2010-11-06T09:28:01Z</time>
      </trkpt>
      <trkpt lat="44.02402" lon="7.22772">
        <ele>2012</ele>
        <time>2010-11-06T09:28:07Z</time>
      </trkpt>
      <trkpt lat="44.02366" lon="7.22887">
        <ele>2023</ele>
        <time>2010-11-06T09:28:58Z</time>
      </trkpt>
      <trkpt lat="44.02302" lon="7.22977">
        <ele>2023</ele>
        <time>2010-11-06T09:29:24Z</time>
      </trkpt>
      <trkpt lat="44.02234" lon="7.23059">
        <ele>2019</ele>
        <time>2010-11-06T09:29:43Z</time>
      </trkpt>
      <trkpt lat="44.02146" lon="7.23094">
        <ele>2017</ele>
        <time>2010-11-06T09:30:00Z</time>
      </trkpt>
      <trkpt lat="44.02058" lon="7.23127">
        <ele>2019</ele>
        <time>2010-11-06T09:30:15Z</time>
      </trkpt>
      <trkpt lat="44.02026" lon="7.23146">
        <ele>2020</ele>
        <time>2010-11-06T09:30:25Z</time>
      </trkpt>
      <trkpt lat="44.01936" lon="7.23134">
        <ele>1993</ele>
        <time>2010-11-06T09:33:07Z</time>
      </trkpt>
      <trkpt lat="44.01852" lon="7.23081">
        <ele>1989</ele>
        <time>2010-11-06T09:33:33Z</time>
      </trkpt>
      <trkpt lat="44.01778" lon="7.23008">
        <ele>1980</ele>
        <time>2010-11-06T09:33:54Z</time>
      </trkpt>
      <trkpt lat="44.01766" lon="7.23">
        <ele>1978</ele>
        <time>2010-11-06T09:33:57Z</time>
      </trkpt>
      <trkpt lat="44.01671" lon="7.23014">
        <ele>1947</ele>
        <time>2010-11-06T09:36:08Z</time>
      </trkpt>
      <trkpt lat="44.01595" lon="7.22947">
        <ele>1953</ele>
        <time>2010-11-06T09:37:26Z</time>
      </trkpt>
      <trkpt lat="44.01509" lon="7.22904">
        <ele>1966</ele>
        <time>2010-11-06T09:39:53Z</time>
      </trkpt>
      <trkpt lat="44.01502" lon="7.22902">
        <ele>1967</ele>
        <time>2010-11-06T09:40:05Z</time>
      </trkpt>
      <trkpt lat="44.01475" lon="7.2278">
        <ele>1965</ele>
        <time>2010-11-06T09:40:29Z</time>
      </trkpt>
      <trkpt lat="44.01561" lon="7.22821">
        <ele>1923</ele>
        <time>2010-11-06T09:44:25Z</time>
      </trkpt>
      <trkpt lat="44.01576" lon="7.22821">
        <ele>1923</ele>
        <time>2010-11-06T09:44:28Z</time>
      </trkpt>
      <trkpt lat="44.01577" lon="7.22695">
        <ele>1879</ele>
        <time>2010-11-06T09:45:43Z</time>
      </trkpt>
      <trkpt lat="44.01569" lon="7.22674">
        <ele>1878</ele>
        <time>2010-11-06T09:45:47Z</time>
      </trkpt>
      <trkpt lat="44.0149" lon="7.22608">
        <ele>1850</ele>
        <time>2010-11-06T09:46:10Z</time>
      </trkpt>
      <trkpt lat="44.01401" lon="7.22589">
        <ele>1831</ele>
        <time>2010-11-06T09:46:30Z</time>
      </trkpt>
      <trkpt lat="44.013" lon="7.22558">
        <ele>1833</ele>
        <time>2010-11-06T09:47:42Z</time>
      </trkpt>
      <trkpt lat="44.01302" lon="7.22556">
        <ele>1831</ele>
        <time>2010-11-06T09:48:24Z</time>
      </trkpt>
      <trkpt lat="44.01225" lon="7.22486">
        <ele>1824</ele>
        <time>2010-11-06T09:49:17Z</time>
      </trkpt>
      <trkpt lat="44.01216" lon="7.22475">
        <ele>1822</ele>
        <time>2010-11-06T09:49:20Z</time>
      </trkpt>
      <trkpt lat="44.01148" lon="7.2239">
        <ele>1810</ele>
        <time>2010-11-06T09:50:01Z</time>
      </trkpt>
      <trkpt lat="44.01108" lon="7.22275">
        <ele>1800</ele>
        <time>2010-11-06T09:50:25Z</time>
      </trkpt>
      <trkpt lat="44.01072" lon="7.22197">
        <ele>1797</ele>
        <time>2010-11-06T09:50:37Z</time>
      </trkpt>
      <trkpt lat="44.01023" lon="7.22125">
        <ele>1765</ele>
        <time>2010-11-06T09:52:20Z</time>
      </trkpt>
      <trkpt lat="44.00951" lon="7.22203">
        <ele>1767</ele>
        <time>2010-11-06T09:53:22Z</time>
      </trkpt>
      <trkpt lat="44.00867" lon="7.22251">
        <ele>1774</ele>
        <time>2010-11-06T09:54:01Z</time>
      </trkpt>
      <trkpt lat="44.00817" lon="7.22257">
        <ele>1776</ele>
        <time>2010-11-06T09:54:19Z</time>
      </trkpt>
      <trkpt lat="44.00725" lon="7.2228">
        <ele>1786</ele>
        <time>2010-11-06T09:55:08Z</time>
      </trkpt>
      <trkpt lat="44.0063" lon="7.22251">
        <ele>1786</ele>
        <time>2010-11-06T09:55:49Z</time>
      </trkpt>
      <trkpt lat="44.00545" lon="7.22184">
        <ele>1790</ele>
        <time>2010-11-06T09:56:41Z</time>
      </trkpt>
      <trkpt lat="44.00542" lon="7.2218">
        <ele>1791</ele>
        <time>2010-11-06T09:56:43Z</time>
      </trkpt>
      <trkpt lat="44.00473" lon="7.22097">
        <ele>1799</ele>
        <time>2010-11-06T09:57:16Z</time>
      </trkpt>
      <trkpt lat="44.00409" lon="7.22034">
        <ele>1804</ele>
        <time>2010-11-06T09:57:47Z</time>
      </trkpt>
      <trkpt lat="44.00355" lon="7.21986">
        <ele>1760</ele>
        <time>2010-11-06T10:12:38Z</time>
      </trkpt>
      <trkpt lat="44.00355" lon="7.21986">
        <ele>1760</ele>
        <time>2010-11-06T10:12:38Z</time>
      </trkpt>
      <trkpt lat="44.00355" lon="7.21986">
        <ele>1760</ele>
        <time>2010-11-06T10:12:39Z</time>
      </trkpt>
      <trkpt lat="44.00355" lon="7.21986">
        <ele>1760</ele>
        <time>2010-11-06T10:12:50Z</time>
      </trkpt>
      <trkpt lat="44.00347" lon="7.21999">
        <ele>1767</ele>
        <time>2010-11-06T10:12:59Z</time>
      </trkpt>
      <trkpt lat="44.00349" lon="7.21997">
        <ele>1775</ele>
        <time>2010-11-06T10:13:05Z</time>
      </trkpt>
      <trkpt lat="44.0026" lon="7.22038">
        <ele>1795</ele>
        <time>2010-11-06T10:14:51Z</time>
      </trkpt>
      <trkpt lat="44.00221" lon="7.22093">
        <ele>1794</ele>
        <time>2010-11-06T10:15:02Z</time>
      </trkpt>
      <trkpt lat="44.00193" lon="7.22213">
        <ele>1786</ele>
        <time>2010-11-06T10:15:24Z</time>
      </trkpt>
      <trkpt lat="44.00176" lon="7.22277">
        <ele>1780</ele>
        <time>2010-11-06T10:15:38Z</time>
      </trkpt>
      <trkpt lat="44.00164" lon="7.22319">
        <ele>1775</ele>
        <time>2010-11-06T10:15:52Z</time>
      </trkpt>
      <trkpt lat="44.00146" lon="7.22448">
        <ele>1785</ele>
        <time>2010-11-06T10:17:17Z</time>
      </trkpt>
      <trkpt lat="44.00144" lon="7.22462">
        <ele>1787</ele>
        <time>2010-11-06T10:17:25Z</time>
      </trkpt>
      <trkpt lat="44.00137" lon="7.22589">
        <ele>1796</ele>
        <time>2010-11-06T10:18:49Z</time>
      </trkpt>
      <trkpt lat="44.00092" lon="7.22698">
        <ele>1798</ele>
        <time>2010-11-06T10:19:09Z</time>
      </trkpt>
      <trkpt lat="44.0008" lon="7.22746">
        <ele>1797</ele>
        <time>2010-11-06T10:19:19Z</time>
      </trkpt>
      <trkpt lat="44.00064" lon="7.22871">
        <ele>1803</ele>
        <time>2010-11-06T10:19:48Z</time>
      </trkpt>
      <trkpt lat="44.00066" lon="7.22887">
        <ele>1802</ele>
        <time>2010-11-06T10:19:51Z</time>
      </trkpt>
      <trkpt lat="44.00057" lon="7.2294">
        <ele>1796</ele>
        <time>2010-11-06T10:20:14Z</time>
      </trkpt>
      <trkpt lat="43.99985" lon="7.23018">
        <ele>1804</ele>
        <time>2010-11-06T10:20:39Z</time>
      </trkpt>
      <trkpt lat="43.99911" lon="7.23099">
        <ele>1816</ele>
        <time>2010-11-06T10:20:52Z</time>
      </trkpt>
      <trkpt lat="43.99845" lon="7.23188">
        <ele>1810</ele>
        <time>2010-11-06T10:21:03Z</time>
      </trkpt>
      <trkpt lat="43.99849" lon="7.23219">
        <ele>1804</ele>
        <time>2010-11-06T10:21:06Z</time>
      </trkpt>
      <trkpt lat="43.99873" lon="7.23341">
        <ele>1791</ele>
        <time>2010-11-06T10:21:18Z</time>
      </trkpt>
      <trkpt lat="43.99874" lon="7.23349">
        <ele>1791</ele>
        <time>2010-11-06T10:21:18Z</time>
      </trkpt>
      <trkpt lat="43.99887" lon="7.23474">
        <ele>1784</ele>
        <time>2010-11-06T10:21:29Z</time>
      </trkpt>
      <trkpt lat="43.9988" lon="7.23509">
        <ele>1783</ele>
        <time>2010-11-06T10:21:33Z</time>
      </trkpt>
    </trkseg>
  </trk>
</gpx>